sensor_id;sensor_type;location;lat;lon;timestamp;temperature;humidity
65231;DHT22;51813;40.666;16.602;2022-12-05T00:03:53;16.80;71.60
65231;DHT22;51813;40.666;16.602;2022-12-05T00:06:20;16.80;71.60
65231;DHT22;51813;40.666;16.602;2022-12-05T00:08:47;16.80;71.70
65231;DHT22;51813;40.666;16.602;2022-12-05T00:11:18;16.80;71.80
65231;DHT22;51813;40.666;16.602;2022-12-05T00:13:44;16.80;71.80
65231;DHT22;51813;40.666;16.602;2022-12-05T00:16:12;16.80;71.70
65231;DHT22;51813;40.666;16.602;2022-12-05T00:18:38;16.80;71.70
65231;DHT22;51813;40.666;16.602;2022-12-05T00:21:05;16.80;71.70
65231;DHT22;51813;40.666;16.602;2022-12-05T00:23:31;16.80;71.70
65231;DHT22;51813;40.666;16.602;2022-12-05T00:26:01;16.80;71.60
65231;DHT22;51813;40.666;16.602;2022-12-05T00:28:27;16.80;71.80
65231;DHT22;51813;40.666;16.602;2022-12-05T00:30:53;16.80;71.80
65231;DHT22;51813;40.666;16.602;2022-12-05T00:33:19;16.80;71.90
65231;DHT22;51813;40.666;16.602;2022-12-05T00:35:44;16.80;71.90
65231;DHT22;51813;40.666;16.602;2022-12-05T00:38:10;16.80;71.90
65231;DHT22;51813;40.666;16.602;2022-12-05T00:40:35;16.80;72.00
65231;DHT22;51813;40.666;16.602;2022-12-05T00:43:01;16.80;72.00
65231;DHT22;51813;40.666;16.602;2022-12-05T00:45:27;16.80;72.00
65231;DHT22;51813;40.666;16.602;2022-12-05T00:47:52;16.80;72.00
65231;DHT22;51813;40.666;16.602;2022-12-05T00:50:18;16.80;72.30
65231;DHT22;51813;40.666;16.602;2022-12-05T00:52:44;16.80;72.00
65231;DHT22;51813;40.666;16.602;2022-12-05T00:55:09;16.80;72.00
65231;DHT22;51813;40.666;16.602;2022-12-05T00:57:35;16.80;72.00
65231;DHT22;51813;40.666;16.602;2022-12-05T01:00:01;16.80;72.00
65231;DHT22;51813;40.666;16.602;2022-12-05T01:02:27;16.80;72.00
65231;DHT22;51813;40.666;16.602;2022-12-05T01:04:54;16.80;72.10
65231;DHT22;51813;40.666;16.602;2022-12-05T01:07:20;16.80;72.10
65231;DHT22;51813;40.666;16.602;2022-12-05T01:09:45;16.80;72.20
65231;DHT22;51813;40.666;16.602;2022-12-05T01:12:11;16.80;72.20
65231;DHT22;51813;40.666;16.602;2022-12-05T01:14:37;16.80;72.20
65231;DHT22;51813;40.666;16.602;2022-12-05T01:17:02;16.80;72.20
65231;DHT22;51813;40.666;16.602;2022-12-05T01:19:30;16.80;72.20
65231;DHT22;51813;40.666;16.602;2022-12-05T01:21:57;16.80;72.20
65231;DHT22;51813;40.666;16.602;2022-12-05T01:24:25;16.80;72.20
65231;DHT22;51813;40.666;16.602;2022-12-05T01:26:51;16.80;72.20
65231;DHT22;51813;40.666;16.602;2022-12-05T01:29:19;16.80;72.20
65231;DHT22;51813;40.666;16.602;2022-12-05T01:31:45;16.80;72.20
65231;DHT22;51813;40.666;16.602;2022-12-05T01:34:12;16.80;72.20
65231;DHT22;51813;40.666;16.602;2022-12-05T01:36:39;16.80;72.20
65231;DHT22;51813;40.666;16.602;2022-12-05T01:39:07;16.80;72.30
65231;DHT22;51813;40.666;16.602;2022-12-05T01:41:36;16.80;72.20
65231;DHT22;51813;40.666;16.602;2022-12-05T01:44:06;16.80;72.30
65231;DHT22;51813;40.666;16.602;2022-12-05T01:46:34;16.80;72.20
65231;DHT22;51813;40.666;16.602;2022-12-05T01:51:54;16.80;72.20
65231;DHT22;51813;40.666;16.602;2022-12-05T01:54:22;16.80;72.20
65231;DHT22;51813;40.666;16.602;2022-12-05T01:57:00;16.80;72.30
65231;DHT22;51813;40.666;16.602;2022-12-05T01:59:29;16.80;72.20
65231;DHT22;51813;40.666;16.602;2022-12-05T02:01:56;16.80;72.20
65231;DHT22;51813;40.666;16.602;2022-12-05T02:04:22;16.80;72.20
65231;DHT22;51813;40.666;16.602;2022-12-05T02:06:48;16.80;72.30
65231;DHT22;51813;40.666;16.602;2022-12-05T02:09:14;16.80;72.20
65231;DHT22;51813;40.666;16.602;2022-12-05T02:11:53;16.80;72.90
65231;DHT22;51813;40.666;16.602;2022-12-05T02:17:33;16.80;72.20
65231;DHT22;51813;40.666;16.602;2022-12-05T02:23:49;16.80;72.20
65231;DHT22;51813;40.666;16.602;2022-12-05T02:39:45;16.80;72.30
65231;DHT22;51813;40.666;16.602;2022-12-05T02:42:20;16.80;72.20
65231;DHT22;51813;40.666;16.602;2022-12-05T02:45:12;16.80;72.20
65231;DHT22;51813;40.666;16.602;2022-12-05T02:47:41;16.80;72.20
65231;DHT22;51813;40.666;16.602;2022-12-05T02:50:10;16.80;72.30
65231;DHT22;51813;40.666;16.602;2022-12-05T02:52:39;16.80;72.30
65231;DHT22;51813;40.666;16.602;2022-12-05T02:55:06;16.80;72.30
65231;DHT22;51813;40.666;16.602;2022-12-05T02:57:33;16.80;72.30
65231;DHT22;51813;40.666;16.602;2022-12-05T03:00:00;16.80;72.30
65231;DHT22;51813;40.666;16.602;2022-12-05T03:02:32;16.80;72.30
65231;DHT22;51813;40.666;16.602;2022-12-05T03:07:51;16.80;72.20
65231;DHT22;51813;40.666;16.602;2022-12-05T03:10:21;16.80;72.20
65231;DHT22;51813;40.666;16.602;2022-12-05T03:12:52;16.80;72.20
65231;DHT22;51813;40.666;16.602;2022-12-05T03:15:24;16.80;72.20
65231;DHT22;51813;40.666;16.602;2022-12-05T03:17:59;16.80;72.20
65231;DHT22;51813;40.666;16.602;2022-12-05T03:20:37;16.80;72.20
65231;DHT22;51813;40.666;16.602;2022-12-05T03:23:12;16.80;72.20
65231;DHT22;51813;40.666;16.602;2022-12-05T03:28:20;16.80;72.20
65231;DHT22;51813;40.666;16.602;2022-12-05T03:30:52;16.80;72.20
65231;DHT22;51813;40.666;16.602;2022-12-05T03:33:22;16.80;72.10
65231;DHT22;51813;40.666;16.602;2022-12-05T03:36:12;16.80;72.10
65231;DHT22;51813;40.666;16.602;2022-12-05T03:39:02;16.80;72.10
65231;DHT22;51813;40.666;16.602;2022-12-05T03:41:39;16.80;72.10
65231;DHT22;51813;40.666;16.602;2022-12-05T03:44:17;16.80;72.10
65231;DHT22;51813;40.666;16.602;2022-12-05T03:49:24;16.80;72.10
65231;DHT22;51813;40.666;16.602;2022-12-05T03:52:03;16.80;72.10
65231;DHT22;51813;40.666;16.602;2022-12-05T03:54:36;16.80;72.10
65231;DHT22;51813;40.666;16.602;2022-12-05T03:57:03;16.80;72.10
65231;DHT22;51813;40.666;16.602;2022-12-05T03:59:40;16.80;72.10
65231;DHT22;51813;40.666;16.602;2022-12-05T04:02:17;16.80;72.10
65231;DHT22;51813;40.666;16.602;2022-12-05T04:05:03;16.80;72.10
65231;DHT22;51813;40.666;16.602;2022-12-05T04:07:33;16.80;72.10
65231;DHT22;51813;40.666;16.602;2022-12-05T04:10:05;16.80;72.10
65231;DHT22;51813;40.666;16.602;2022-12-05T04:12:34;16.80;72.10
65231;DHT22;51813;40.666;16.602;2022-12-05T04:15:11;16.80;72.70
65231;DHT22;51813;40.666;16.602;2022-12-05T04:17:49;16.80;72.10
65231;DHT22;51813;40.666;16.602;2022-12-05T04:20:21;16.80;72.10
65231;DHT22;51813;40.666;16.602;2022-12-05T04:23:08;16.80;72.00
65231;DHT22;51813;40.666;16.602;2022-12-05T04:31:15;16.80;72.00
65231;DHT22;51813;40.666;16.602;2022-12-05T04:33:52;16.80;72.00
65231;DHT22;51813;40.666;16.602;2022-12-05T04:41:56;16.80;72.00
65231;DHT22;51813;40.666;16.602;2022-12-05T04:44:28;16.80;72.00
65231;DHT22;51813;40.666;16.602;2022-12-05T04:46:56;16.80;71.90
65231;DHT22;51813;40.666;16.602;2022-12-05T04:49:26;16.80;71.90
65231;DHT22;51813;40.666;16.602;2022-12-05T04:51:55;16.80;71.90
65231;DHT22;51813;40.666;16.602;2022-12-05T04:54:33;16.80;71.80
65231;DHT22;51813;40.666;16.602;2022-12-05T04:57:08;16.80;71.90
65231;DHT22;51813;40.666;16.602;2022-12-05T04:59:35;16.80;71.90
65231;DHT22;51813;40.666;16.602;2022-12-05T05:02:08;16.80;71.90
65231;DHT22;51813;40.666;16.602;2022-12-05T05:04:44;16.80;71.90
65231;DHT22;51813;40.666;16.602;2022-12-05T05:07:12;16.80;71.90
65231;DHT22;51813;40.666;16.602;2022-12-05T05:09:39;16.80;71.90
65231;DHT22;51813;40.666;16.602;2022-12-05T05:12:05;16.80;71.90
65231;DHT22;51813;40.666;16.602;2022-12-05T05:14:31;16.80;71.90
65231;DHT22;51813;40.666;16.602;2022-12-05T05:16:56;16.80;71.80
65231;DHT22;51813;40.666;16.602;2022-12-05T05:19:23;16.80;71.90
65231;DHT22;51813;40.666;16.602;2022-12-05T05:21:49;16.80;71.80
65231;DHT22;51813;40.666;16.602;2022-12-05T05:24:15;16.80;71.80
65231;DHT22;51813;40.666;16.602;2022-12-05T05:26:44;16.80;71.70
65231;DHT22;51813;40.666;16.602;2022-12-05T05:29:10;16.80;71.70
65231;DHT22;51813;40.666;16.602;2022-12-05T05:31:37;16.80;71.70
65231;DHT22;51813;40.666;16.602;2022-12-05T05:34:03;16.80;71.60
65231;DHT22;51813;40.666;16.602;2022-12-05T05:36:29;16.80;71.80
65231;DHT22;51813;40.666;16.602;2022-12-05T05:38:57;16.80;71.80
65231;DHT22;51813;40.666;16.602;2022-12-05T05:41:24;16.80;71.70
65231;DHT22;51813;40.666;16.602;2022-12-05T05:43:51;16.80;71.80
65231;DHT22;51813;40.666;16.602;2022-12-05T05:46:18;16.80;71.80
65231;DHT22;51813;40.666;16.602;2022-12-05T05:48:44;16.80;71.70
65231;DHT22;51813;40.666;16.602;2022-12-05T05:51:11;16.80;71.70
65231;DHT22;51813;40.666;16.602;2022-12-05T05:53:38;16.80;71.80
65231;DHT22;51813;40.666;16.602;2022-12-05T05:56:05;16.80;71.70
65231;DHT22;51813;40.666;16.602;2022-12-05T05:58:32;16.80;71.70
65231;DHT22;51813;40.666;16.602;2022-12-05T06:01:05;16.80;71.70
65231;DHT22;51813;40.666;16.602;2022-12-05T06:03:32;16.80;71.70
65231;DHT22;51813;40.666;16.602;2022-12-05T06:05:59;16.80;71.80
65231;DHT22;51813;40.666;16.602;2022-12-05T06:08:25;16.80;71.70
65231;DHT22;51813;40.666;16.602;2022-12-05T06:10:53;16.80;71.70
65231;DHT22;51813;40.666;16.602;2022-12-05T06:13:18;16.80;71.70
65231;DHT22;51813;40.666;16.602;2022-12-05T06:15:44;16.80;71.60
65231;DHT22;51813;40.666;16.602;2022-12-05T06:18:10;16.80;71.70
65231;DHT22;51813;40.666;16.602;2022-12-05T06:20:35;16.80;71.60
65231;DHT22;51813;40.666;16.602;2022-12-05T06:23:01;16.80;71.60
65231;DHT22;51813;40.666;16.602;2022-12-05T06:25:27;16.80;71.70
65231;DHT22;51813;40.666;16.602;2022-12-05T06:27:53;16.80;71.70
65231;DHT22;51813;40.666;16.602;2022-12-05T06:30:18;16.80;71.70
65231;DHT22;51813;40.666;16.602;2022-12-05T06:32:44;16.80;71.70
65231;DHT22;51813;40.666;16.602;2022-12-05T06:35:10;16.80;71.60
65231;DHT22;51813;40.666;16.602;2022-12-05T06:37:43;16.80;71.60
65231;DHT22;51813;40.666;16.602;2022-12-05T06:40:13;16.80;71.60
65231;DHT22;51813;40.666;16.602;2022-12-05T06:42:40;16.80;71.60
65231;DHT22;51813;40.666;16.602;2022-12-05T06:45:06;16.80;71.60
65231;DHT22;51813;40.666;16.602;2022-12-05T06:47:32;16.80;71.70
65231;DHT22;51813;40.666;16.602;2022-12-05T06:49:58;16.80;71.60
65231;DHT22;51813;40.666;16.602;2022-12-05T06:52:23;16.80;71.60
65231;DHT22;51813;40.666;16.602;2022-12-05T06:54:49;16.80;71.60
65231;DHT22;51813;40.666;16.602;2022-12-05T06:57:15;16.80;71.60
65231;DHT22;51813;40.666;16.602;2022-12-05T06:59:41;16.80;71.50
65231;DHT22;51813;40.666;16.602;2022-12-05T07:02:08;16.80;71.50
65231;DHT22;51813;40.666;16.602;2022-12-05T07:04:35;16.80;71.50
65231;DHT22;51813;40.666;16.602;2022-12-05T07:07:01;16.80;71.60
65231;DHT22;51813;40.666;16.602;2022-12-05T07:09:27;16.80;71.50
65231;DHT22;51813;40.666;16.602;2022-12-05T07:12:14;16.80;71.50
65231;DHT22;51813;40.666;16.602;2022-12-05T07:14:40;16.80;71.50
65231;DHT22;51813;40.666;16.602;2022-12-05T07:17:06;16.80;71.40
65231;DHT22;51813;40.666;16.602;2022-12-05T07:19:32;16.80;71.50
65231;DHT22;51813;40.666;16.602;2022-12-05T07:21:57;16.80;72.10
65231;DHT22;51813;40.666;16.602;2022-12-05T07:24:23;16.80;71.40
65231;DHT22;51813;40.666;16.602;2022-12-05T07:26:49;16.80;71.40
65231;DHT22;51813;40.666;16.602;2022-12-05T07:29:14;16.80;71.40
65231;DHT22;51813;40.666;16.602;2022-12-05T07:31:40;16.80;71.30
65231;DHT22;51813;40.666;16.602;2022-12-05T07:34:06;16.80;71.30
65231;DHT22;51813;40.666;16.602;2022-12-05T07:36:31;16.80;71.30
65231;DHT22;51813;40.666;16.602;2022-12-05T07:38:57;16.80;71.40
65231;DHT22;51813;40.666;16.602;2022-12-05T07:41:25;16.80;71.30
65231;DHT22;51813;40.666;16.602;2022-12-05T07:43:52;16.80;71.30
65231;DHT22;51813;40.666;16.602;2022-12-05T07:46:19;16.80;71.30
65231;DHT22;51813;40.666;16.602;2022-12-05T07:48:46;16.80;71.30
65231;DHT22;51813;40.666;16.602;2022-12-05T07:51:12;16.80;71.30
65231;DHT22;51813;40.666;16.602;2022-12-05T07:53:38;16.80;71.40
65231;DHT22;51813;40.666;16.602;2022-12-05T07:56:07;16.70;71.70
65231;DHT22;51813;40.666;16.602;2022-12-05T07:58:33;16.70;72.00
65231;DHT22;51813;40.666;16.602;2022-12-05T08:01:08;16.60;72.40
65231;DHT22;51813;40.666;16.602;2022-12-05T08:03:34;16.60;72.30
65231;DHT22;51813;40.666;16.602;2022-12-05T08:06:09;16.60;72.50
65231;DHT22;51813;40.666;16.602;2022-12-05T08:08:35;16.70;71.80
65231;DHT22;51813;40.666;16.602;2022-12-05T08:11:10;16.70;71.40
65231;DHT22;51813;40.666;16.602;2022-12-05T08:13:36;16.80;71.50
65231;DHT22;51813;40.666;16.602;2022-12-05T08:16:03;16.80;71.40
65231;DHT22;51813;40.666;16.602;2022-12-05T08:18:29;16.80;71.20
65231;DHT22;51813;40.666;16.602;2022-12-05T08:21:00;16.90;71.50
65231;DHT22;51813;40.666;16.602;2022-12-05T08:23:28;16.90;71.30
65231;DHT22;51813;40.666;16.602;2022-12-05T08:25:54;17.00;71.30
65231;DHT22;51813;40.666;16.602;2022-12-05T08:28:19;17.00;71.30
65231;DHT22;51813;40.666;16.602;2022-12-05T08:30:45;17.10;70.70
65231;DHT22;51813;40.666;16.602;2022-12-05T08:33:11;17.10;70.70
65231;DHT22;51813;40.666;16.602;2022-12-05T08:35:37;17.20;70.60
65231;DHT22;51813;40.666;16.602;2022-12-05T08:38:02;17.20;70.50
65231;DHT22;51813;40.666;16.602;2022-12-05T08:40:28;17.30;70.30
65231;DHT22;51813;40.666;16.602;2022-12-05T08:42:56;17.30;70.30
65231;DHT22;51813;40.666;16.602;2022-12-05T08:45:22;17.30;70.20
65231;DHT22;51813;40.666;16.602;2022-12-05T08:47:47;17.40;70.10
65231;DHT22;51813;40.666;16.602;2022-12-05T08:50:13;17.30;69.80
65231;DHT22;51813;40.666;16.602;2022-12-05T08:52:39;17.30;69.60
65231;DHT22;51813;40.666;16.602;2022-12-05T08:55:04;17.30;69.60
65231;DHT22;51813;40.666;16.602;2022-12-05T08:57:30;17.40;69.60
65231;DHT22;51813;40.666;16.602;2022-12-05T08:59:56;17.40;70.20
65231;DHT22;51813;40.666;16.602;2022-12-05T09:02:23;17.40;69.30
65231;DHT22;51813;40.666;16.602;2022-12-05T09:04:51;17.40;69.20
65231;DHT22;51813;40.666;16.602;2022-12-05T09:07:17;17.40;69.10
65231;DHT22;51813;40.666;16.602;2022-12-05T09:09:42;17.50;69.10
65231;DHT22;51813;40.666;16.602;2022-12-05T09:12:08;17.50;69.10
65231;DHT22;51813;40.666;16.602;2022-12-05T09:14:34;17.50;69.10
65231;DHT22;51813;40.666;16.602;2022-12-05T09:17:00;17.50;69.50
65231;DHT22;51813;40.666;16.602;2022-12-05T09:19:26;17.50;69.70
65231;DHT22;51813;40.666;16.602;2022-12-05T09:21:53;17.50;69.70
65231;DHT22;51813;40.666;16.602;2022-12-05T09:24:19;17.50;69.80
65231;DHT22;51813;40.666;16.602;2022-12-05T09:26:45;17.50;69.70
65231;DHT22;51813;40.666;16.602;2022-12-05T09:29:12;17.50;69.60
65231;DHT22;51813;40.666;16.602;2022-12-05T09:31:38;17.50;69.30
65231;DHT22;51813;40.666;16.602;2022-12-05T09:34:04;17.60;69.30
65231;DHT22;51813;40.666;16.602;2022-12-05T09:36:30;17.60;69.10
65231;DHT22;51813;40.666;16.602;2022-12-05T09:39:02;17.60;69.20
65231;DHT22;51813;40.666;16.602;2022-12-05T09:41:44;17.60;69.10
65231;DHT22;51813;40.666;16.602;2022-12-05T09:49:46;17.60;69.10
65231;DHT22;51813;40.666;16.602;2022-12-05T09:52:35;17.60;69.20
65231;DHT22;51813;40.666;16.602;2022-12-05T09:55:10;17.60;69.10
65231;DHT22;51813;40.666;16.602;2022-12-05T09:57:41;17.60;69.00
65231;DHT22;51813;40.666;16.602;2022-12-05T10:00:09;17.70;69.00
65231;DHT22;51813;40.666;16.602;2022-12-05T10:05:24;17.70;69.30
65231;DHT22;51813;40.666;16.602;2022-12-05T10:08:01;17.60;69.30
65231;DHT22;51813;40.666;16.602;2022-12-05T10:13:24;17.50;68.50
65231;DHT22;51813;40.666;16.602;2022-12-05T10:15:59;17.60;69.10
65231;DHT22;51813;40.666;16.602;2022-12-05T10:23:52;17.70;69.00
65231;DHT22;51813;40.666;16.602;2022-12-05T10:26:20;17.80;69.00
65231;DHT22;51813;40.666;16.602;2022-12-05T10:29:16;17.80;68.90
65231;DHT22;51813;40.666;16.602;2022-12-05T10:31:46;17.80;68.80
65231;DHT22;51813;40.666;16.602;2022-12-05T10:34:29;17.70;68.60
65231;DHT22;51813;40.666;16.602;2022-12-05T10:37:04;17.70;68.70
65231;DHT22;51813;40.666;16.602;2022-12-05T10:39:32;17.60;68.60
65231;DHT22;51813;40.666;16.602;2022-12-05T10:41:58;17.60;68.60
65231;DHT22;51813;40.666;16.602;2022-12-05T10:44:24;17.70;68.80
65231;DHT22;51813;40.666;16.602;2022-12-05T10:46:50;17.70;69.10
65231;DHT22;51813;40.666;16.602;2022-12-05T10:49:16;17.80;69.40
65231;DHT22;51813;40.666;16.602;2022-12-05T10:51:43;17.90;69.30
65231;DHT22;51813;40.666;16.602;2022-12-05T10:54:23;17.90;69.10
65231;DHT22;51813;40.666;16.602;2022-12-05T11:22:54;18.20;68.00
65231;DHT22;51813;40.666;16.602;2022-12-05T11:25:30;18.20;68.20
65231;DHT22;51813;40.666;16.602;2022-12-05T11:33:24;18.20;68.20
65231;DHT22;51813;40.666;16.602;2022-12-05T11:35:53;18.20;67.70
65231;DHT22;51813;40.666;16.602;2022-12-05T11:38:23;18.20;68.10
65231;DHT22;51813;40.666;16.602;2022-12-05T11:46:40;18.20;67.50
65231;DHT22;51813;40.666;16.602;2022-12-05T12:00:04;18.20;67.20
65231;DHT22;51813;40.666;16.602;2022-12-05T12:02:57;18.30;67.20
65231;DHT22;51813;40.666;16.602;2022-12-05T12:24:40;18.30;67.20
65231;DHT22;51813;40.666;16.602;2022-12-05T12:40:57;18.10;67.40
65231;DHT22;51813;40.666;16.602;2022-12-05T12:44:15;18.10;67.50
65231;DHT22;51813;40.666;16.602;2022-12-05T12:46:41;18.10;67.60
65231;DHT22;51813;40.666;16.602;2022-12-05T12:51:57;18.00;67.70
65231;DHT22;51813;40.666;16.602;2022-12-05T13:02:56;18.00;67.80
65231;DHT22;51813;40.666;16.602;2022-12-05T13:05:45;18.00;67.90
65231;DHT22;51813;40.666;16.602;2022-12-05T13:10:45;18.00;67.90
65231;DHT22;51813;40.666;16.602;2022-12-05T13:13:17;18.00;67.90
65231;DHT22;51813;40.666;16.602;2022-12-05T13:15:55;18.00;68.00
65231;DHT22;51813;40.666;16.602;2022-12-05T13:18:24;18.00;68.00
65231;DHT22;51813;40.666;16.602;2022-12-05T13:20:55;18.00;68.00
65231;DHT22;51813;40.666;16.602;2022-12-05T13:23:24;17.90;68.00
65231;DHT22;51813;40.666;16.602;2022-12-05T13:25:53;17.90;68.00
65231;DHT22;51813;40.666;16.602;2022-12-05T13:28:27;17.90;68.10
65231;DHT22;51813;40.666;16.602;2022-12-05T13:30:54;17.90;68.10
65231;DHT22;51813;40.666;16.602;2022-12-05T13:33:41;17.90;68.10
65231;DHT22;51813;40.666;16.602;2022-12-05T13:36:11;17.90;68.10
65231;DHT22;51813;40.666;16.602;2022-12-05T13:39:01;17.90;68.10
65231;DHT22;51813;40.666;16.602;2022-12-05T13:41:50;17.90;68.10
65231;DHT22;51813;40.666;16.602;2022-12-05T13:47:30;17.90;68.90
65231;DHT22;51813;40.666;16.602;2022-12-05T13:52:51;17.90;68.20
65231;DHT22;51813;40.666;16.602;2022-12-05T13:55:32;17.90;68.10
65231;DHT22;51813;40.666;16.602;2022-12-05T13:58:01;17.90;68.10
65231;DHT22;51813;40.666;16.602;2022-12-05T14:00:32;17.90;68.20
65231;DHT22;51813;40.666;16.602;2022-12-05T14:03:03;17.90;68.20
65231;DHT22;51813;40.666;16.602;2022-12-05T14:05:37;17.80;68.40
65231;DHT22;51813;40.666;16.602;2022-12-05T14:15:53;17.80;69.90
65231;DHT22;51813;40.666;16.602;2022-12-05T14:18:39;17.70;68.90
65231;DHT22;51813;40.666;16.602;2022-12-05T14:21:09;17.70;68.40
65231;DHT22;51813;40.666;16.602;2022-12-05T14:23:57;17.80;68.30
65231;DHT22;51813;40.666;16.602;2022-12-05T14:34:28;17.80;68.10
65231;DHT22;51813;40.666;16.602;2022-12-05T14:42:20;17.80;68.10
65231;DHT22;51813;40.666;16.602;2022-12-05T14:44:49;17.80;68.10
65231;DHT22;51813;40.666;16.602;2022-12-05T14:47:33;17.80;68.10
65231;DHT22;51813;40.666;16.602;2022-12-05T14:52:43;17.80;68.10
65231;DHT22;51813;40.666;16.602;2022-12-05T14:55:14;17.80;68.20
65231;DHT22;51813;40.666;16.602;2022-12-05T14:57:47;17.80;68.10
65231;DHT22;51813;40.666;16.602;2022-12-05T15:00:22;17.80;68.10
65231;DHT22;51813;40.666;16.602;2022-12-05T15:02:50;17.80;68.10
65231;DHT22;51813;40.666;16.602;2022-12-05T15:05:31;17.80;68.20
65231;DHT22;51813;40.666;16.602;2022-12-05T15:07:58;17.80;68.10
65231;DHT22;51813;40.666;16.602;2022-12-05T15:10:32;17.80;68.20
65231;DHT22;51813;40.666;16.602;2022-12-05T15:13:18;17.80;68.20
65231;DHT22;51813;40.666;16.602;2022-12-05T15:16:01;17.80;68.90
65231;DHT22;51813;40.666;16.602;2022-12-05T15:18:37;17.80;68.20
65231;DHT22;51813;40.666;16.602;2022-12-05T15:23:56;17.80;68.30
65231;DHT22;51813;40.666;16.602;2022-12-05T15:26:45;17.80;68.30
65231;DHT22;51813;40.666;16.602;2022-12-05T15:39:57;17.70;68.20
65231;DHT22;51813;40.666;16.602;2022-12-05T15:42:26;17.70;68.10
65231;DHT22;51813;40.666;16.602;2022-12-05T15:44:59;17.70;68.10
65231;DHT22;51813;40.666;16.602;2022-12-05T15:47:34;17.70;68.10
65231;DHT22;51813;40.666;16.602;2022-12-05T15:50:00;17.70;68.10
65231;DHT22;51813;40.666;16.602;2022-12-05T15:55:24;17.70;68.20
65231;DHT22;51813;40.666;16.602;2022-12-05T15:58:07;17.70;68.10
65231;DHT22;51813;40.666;16.602;2022-12-05T16:00:36;17.70;68.10
65231;DHT22;51813;40.666;16.602;2022-12-05T16:05:36;17.70;68.10
65231;DHT22;51813;40.666;16.602;2022-12-05T16:08:04;17.80;68.10
65231;DHT22;51813;40.666;16.602;2022-12-05T16:10:31;17.70;68.00
65231;DHT22;51813;40.666;16.602;2022-12-05T16:13:06;17.70;68.00
65231;DHT22;51813;40.666;16.602;2022-12-05T16:15:35;17.70;68.20
65231;DHT22;51813;40.666;16.602;2022-12-05T16:18:02;17.60;69.00
65231;DHT22;51813;40.666;16.602;2022-12-05T16:20:33;17.60;69.10
65231;DHT22;51813;40.666;16.602;2022-12-05T16:23:01;17.60;68.90
65231;DHT22;51813;40.666;16.602;2022-12-05T16:25:35;17.60;69.00
65231;DHT22;51813;40.666;16.602;2022-12-05T16:30:31;17.60;67.70
65231;DHT22;51813;40.666;16.602;2022-12-05T16:33:06;17.50;68.30
65231;DHT22;51813;40.666;16.602;2022-12-05T16:35:42;17.50;68.80
65231;DHT22;51813;40.666;16.602;2022-12-05T16:38:24;17.40;69.00
65231;DHT22;51813;40.666;16.602;2022-12-05T16:40:56;17.40;69.10
65231;DHT22;51813;40.666;16.602;2022-12-05T16:45:58;17.40;69.50
65231;DHT22;51813;40.666;16.602;2022-12-05T16:48:26;17.40;69.50
65231;DHT22;51813;40.666;16.602;2022-12-05T16:51:21;17.40;69.70
65231;DHT22;51813;40.666;16.602;2022-12-05T16:53:52;17.40;69.60
65231;DHT22;51813;40.666;16.602;2022-12-05T16:56:27;17.50;69.70
65231;DHT22;51813;40.666;16.602;2022-12-05T16:58:54;17.40;70.10
65231;DHT22;51813;40.666;16.602;2022-12-05T17:01:23;17.50;69.70
65231;DHT22;51813;40.666;16.602;2022-12-05T17:03:49;17.50;69.80
65231;DHT22;51813;40.666;16.602;2022-12-05T17:06:16;17.50;70.20
65231;DHT22;51813;40.666;16.602;2022-12-05T17:08:43;17.50;69.40
65231;DHT22;51813;40.666;16.602;2022-12-05T17:11:23;17.50;69.10
65231;DHT22;51813;40.666;16.602;2022-12-05T17:13:50;17.50;68.70
65231;DHT22;51813;40.666;16.602;2022-12-05T17:16:17;17.40;68.60
65231;DHT22;51813;40.666;16.602;2022-12-05T17:18:43;17.30;68.80
65231;DHT22;51813;40.666;16.602;2022-12-05T17:21:13;17.40;69.20
65231;DHT22;51813;40.666;16.602;2022-12-05T17:23:39;17.50;69.00
65231;DHT22;51813;40.666;16.602;2022-12-05T17:26:04;17.60;68.80
65231;DHT22;51813;40.666;16.602;2022-12-05T17:28:30;17.70;68.50
65231;DHT22;51813;40.666;16.602;2022-12-05T17:30:56;17.70;68.10
65231;DHT22;51813;40.666;16.602;2022-12-05T17:33:21;17.80;67.70
65231;DHT22;51813;40.666;16.602;2022-12-05T17:35:47;17.80;67.70
65231;DHT22;51813;40.666;16.602;2022-12-05T17:38:13;17.80;67.70
65231;DHT22;51813;40.666;16.602;2022-12-05T17:40:39;17.80;67.60
65231;DHT22;51813;40.666;16.602;2022-12-05T17:43:05;17.90;67.50
65231;DHT22;51813;40.666;16.602;2022-12-05T17:45:31;17.90;67.40
65231;DHT22;51813;40.666;16.602;2022-12-05T17:47:57;17.90;67.30
65231;DHT22;51813;40.666;16.602;2022-12-05T17:50:24;17.90;67.30
65231;DHT22;51813;40.666;16.602;2022-12-05T17:52:54;18.00;67.30
65231;DHT22;51813;40.666;16.602;2022-12-05T17:55:26;18.00;67.30
65231;DHT22;51813;40.666;16.602;2022-12-05T17:57:53;18.10;67.80
65231;DHT22;51813;40.666;16.602;2022-12-05T18:00:20;18.00;67.20
65231;DHT22;51813;40.666;16.602;2022-12-05T18:02:46;18.00;67.20
65231;DHT22;51813;40.666;16.602;2022-12-05T18:05:14;18.00;67.00
65231;DHT22;51813;40.666;16.602;2022-12-05T18:07:42;18.00;67.10
65231;DHT22;51813;40.666;16.602;2022-12-05T18:10:11;18.00;67.10
65231;DHT22;51813;40.666;16.602;2022-12-05T18:12:37;18.00;67.10
65231;DHT22;51813;40.666;16.602;2022-12-05T18:15:04;18.00;67.10
65231;DHT22;51813;40.666;16.602;2022-12-05T18:17:30;18.00;67.10
65231;DHT22;51813;40.666;16.602;2022-12-05T18:19:56;18.00;67.10
65231;DHT22;51813;40.666;16.602;2022-12-05T18:22:23;18.00;67.10
65231;DHT22;51813;40.666;16.602;2022-12-05T18:24:50;18.00;67.10
65231;DHT22;51813;40.666;16.602;2022-12-05T18:27:16;18.00;67.20
65231;DHT22;51813;40.666;16.602;2022-12-05T18:29:42;18.00;67.20
65231;DHT22;51813;40.666;16.602;2022-12-05T18:32:08;17.90;67.20
65231;DHT22;51813;40.666;16.602;2022-12-05T18:34:34;17.90;67.20
65231;DHT22;51813;40.666;16.602;2022-12-05T18:36:59;17.90;67.30
65231;DHT22;51813;40.666;16.602;2022-12-05T18:39:25;17.90;67.40
65231;DHT22;51813;40.666;16.602;2022-12-05T18:41:52;17.90;67.40
65231;DHT22;51813;40.666;16.602;2022-12-05T18:44:18;17.90;67.50
65231;DHT22;51813;40.666;16.602;2022-12-05T18:46:44;17.80;67.40
65231;DHT22;51813;40.666;16.602;2022-12-05T18:49:11;17.80;67.40
65231;DHT22;51813;40.666;16.602;2022-12-05T18:51:38;17.80;67.50
65231;DHT22;51813;40.666;16.602;2022-12-05T18:54:05;17.80;67.40
65231;DHT22;51813;40.666;16.602;2022-12-05T18:56:32;17.80;67.50
65231;DHT22;51813;40.666;16.602;2022-12-05T18:59:06;17.90;67.60
65231;DHT22;51813;40.666;16.602;2022-12-05T19:01:34;17.80;67.50